x

North Equatorial One- 470 Nm East Of Martinique (41040) Wave Buoy

11:50am - Sat 28th Feb 2015 All times are UTC.

  • Sig Wave height 9.5ft
  • Swell Direction
  • Peak Period 9s
  • Average Period 6s
  • Wind
    29mph, 40mph gusts
  • Sea Temp 79°f
  • Air Temp 74°f
  • Sea Pressure 1016.7mb

More Historic Weather Station data

Upgrade to MSW Pro to gain access to the past 30 days of data for over 8000 Wavebouys and Weather Stations around the globe.

Join Pro

Comparision Forecast

View Surf forecast
   
Sat 02/28 11:50am 9.5ft 9s 6s 29 40 mph 1016.7mb 79f 74f
10:50am 10ft 8s 6s 25 31 mph 1016.1mb 79f 76f
9:50am 10ft 9s 6s 25 31 mph 1015.2mb 79f 75f
8:50am 10.5ft 9s 6s 27 31 mph 1014.8mb 79f 75f
7:50am 8.5ft 8s 6s 27 31 mph 1014.7mb 79f 74f
6:50am 9ft 8s 6s 25 31 mph 1014.5mb 79f 74f
5:50am 9.5ft 8s 6s 27 31 mph 1014.5mb 79f 76f
4:50am 8.5ft 9s 6s 27 34 mph 1015mb 79f 76f
3:50am 8ft 8s 6s 25 29 mph 1015.9mb 79f 75f
2:50am 8.5ft 8s 6s 27 34 mph 1016.2mb 79f 75f
1:50am 8.5ft 8s 6s 20 25 mph 1016.5mb 79f 74f
12:50am 8ft 9s 6s 27 31 mph 1016.4mb 79f 76f
Fri 02/27 11:50pm 8ft 9s 6s 22 27 mph 1016.1mb 79f 78f
10:50pm 7.5ft 9s 6s 22 27 mph 1015.5mb 79f 78f
9:50pm 8ft 8s 6s 22 27 mph 1015mb 79f 78f
8:50pm 7.5ft 8s 6s 20 27 mph 1014.9mb 79f 78f
7:50pm 7.5ft 8s 6s 18 25 mph 1014.8mb 79f 78f
6:50pm 8ft 9s 6s 25 27 mph 1014.5mb 79f 78f
5:50pm 7.5ft 9s 6s 22 27 mph 1015.3mb 79f 78f
4:50pm 8ft 9s 6s 20 25 mph 1016mb 79f 77f
3:50pm 8ft 7s 6s 20 25 mph 1016.8mb 79f 78f
2:50pm 8ft 8s 6s 22 27 mph 1017.5mb 79f 78f
1:50pm 8ft 8s 6s 22 29 mph 1017.8mb 79f 78f
12:50pm 8.5ft 8s 6s 20 25 mph 1017.8mb 79f 78f
11:50am 8.5ft 8s 6s 22 27 mph 1017.3mb 79f 78f
10:50am 9ft 9s 6s 25 29 mph 1016.8mb 79f 77f
9:50am 9.5ft 8s 6s 25 29 mph 1016.1mb 79f 77f
8:50am 9ft 8s 6s 25 29 mph 1015.5mb 79f 77f
7:50am 9ft 7s 6s 25 29 mph 1015.3mb 79f 77f
6:50am 8.5ft 8s 6s 25 27 mph 1015.3mb 79f 77f
5:50am 8.5ft 7s 6s 25 29 mph 1015.3mb 79f 77f
4:50am 8ft 7s 6s 27 31 mph 1015.8mb 79f 77f
3:50am 8.5ft 8s 6s 25 29 mph 1016.3mb 79f 78f
2:50am 7ft 8s 6s 22 27 mph 1016.6mb 79f 78f
1:50am 7.5ft 7s 6s 25 29 mph 1016.9mb 79f 78f
12:50am 7.5ft 8s 6s 22 25 mph 1017mb 79f 78f
Thu 02/26 11:50pm 8ft 8s 6s 22 27 mph 1016.7mb 79f 78f
10:50pm 8ft 8s 6s 20 25 mph 1016mb 79f 78f
9:50pm 8ft 9s 6s 22 25 mph 1015.3mb 79f 78f
8:50pm 7.5ft 8s 6s 22 27 mph 1014.9mb 79f 78f
7:50pm 7ft 6s 6s 22 27 mph 1014.6mb 79f 78f
6:50pm 7.5ft 8s 6s 22 27 mph 1014.7mb 79f 78f
5:50pm 7ft 8s 6s 22 29 mph 1015.2mb 79f 78f
4:50pm 7ft 9s 6s 22 27 mph 1016.3mb 79f 78f
3:50pm 7ft 9s 6s 22 27 mph 1017.2mb 79f 78f
2:50pm 7ft 9s 6s 20 25 mph 1018mb 79f 78f
1:50pm 7ft 9s 6s 22 25 mph 1018.3mb 79f 78f
12:50pm 7.5ft 8s 6s 22 25 mph 1018mb 79f 78f
11:50am 7ft 9s 6s 22 25 mph 1017.4mb 79f 78f
10:50am 7ft 10s 6s 22 25 mph 1016.9mb 79f 78f
9:50am 6.5ft 8s 6s 20 25 mph 1016.4mb 79f 77f
8:50am 7ft 9s 6s 20 25 mph 1015.9mb 79f 77f
7:50am 6.5ft 9s 6s 20 22 mph 1015.6mb 79f 78f
6:50am 7ft 9s 6s 20 25 mph 1015.8mb 79f 77f
5:50am 7ft 7s 6s 20 22 mph 1016.3mb 79f 77f
4:50am 7ft 8s 6s 20 25 mph 1016.9mb 79f 77f
3:50am 7ft 8s 6s 20 25 mph 1017.6mb 79f 77f
2:50am 7.5ft 10s 6s 20 25 mph 1017.9mb 79f 78f
1:50am 7ft 10s 6s 20 25 mph 1018.1mb 79f 78f
12:50am 7ft 8s 6s 20 25 mph 1018.1mb 79f 78f
Wed 02/25 11:50pm 7ft 9s 6s 22 25 mph 1017.6mb 79f 77f
10:50pm 7ft 10s 6s 20 22 mph 1017mb 79f 78f
9:50pm 7ft 10s 6s 20 25 mph 1016.4mb 79f 78f
8:50pm 7ft 10s 6s 18 22 mph 1016.2mb 79f 78f
7:50pm 7ft 9s 6s 18 22 mph 1015.9mb 79f 78f
6:50pm 7ft 10s 6s 18 22 mph 1015.8mb 79f 78f
5:50pm 7ft 10s 6s 16 20 mph 1016.3mb 79f 78f
4:50pm 7ft 10s 6s 16 18 mph 1017mb 79f 78f
3:50pm 7.5ft 10s 6s 18 20 mph 1017.4mb 79f 78f
2:50pm 7ft 9s 6s 18 22 mph 1017.9mb 79f 77f
1:50pm 7.5ft 10s 6s 20 22 mph 1018.1mb 79f 77f
12:50pm 7ft 11s 6s 13 20 mph 1018mb 79f 76f
11:50am 7.5ft 10s 6s 22 27 mph 1017.4mb 79f 77f
10:50am 7ft 10s 6s 18 22 mph 1016.9mb 79f 76f
9:50am 7ft 10s 6s 16 18 mph 1016.5mb 79f 74f
8:50am 7.5ft 10s 7s 20 25 mph 1015.8mb 79f 76f
7:50am 7ft 10s 6s 18 20 mph 1015.5mb 79f 76f
6:50am 7.5ft 11s 7s 18 22 mph 1015.5mb 79f 77f
5:50am 7ft 11s 7s 18 20 mph 1015.9mb 79f 77f
4:50am 7ft 9s 6s 25 31 mph 1016.6mb 79f 74f
3:50am 7ft 11s 6s 11 13 mph 1017.4mb 79f 76f
2:50am 7ft 11s 6s 20 22 mph 1017.4mb 79f 76f
1:50am 7ft 10s 7s 16 20 mph 1017.6mb 79f 77f
12:50am 8ft 11s 7s 18 20 mph 1017.4mb 79f 78f
Tue 02/24 11:50pm 7.5ft 11s 7s 18 22 mph 1017.1mb 79f 78f
10:50pm 8ft 11s 7s 18 20 mph 1016.4mb 79f 78f
9:50pm 7.5ft 11s 7s 18 22 mph 1016mb 79f 78f
8:50pm 8ft 10s 7s 18 22 mph 1015.4mb 79f 78f
7:50pm 8ft 11s 7s 18 22 mph 1014.8mb 79f 78f
6:50pm 8ft 11s 7s 18 22 mph 1014.6mb 79f 78f
5:50pm 7.5ft 11s 7s 18 22 mph 1015mb 79f 78f
4:50pm 8ft 10s 7s 20 22 mph 1015.7mb 79f 78f
3:50pm 8.5ft 11s 7s 20 25 mph 1016.4mb 79f 78f
2:50pm 7.5ft 11s 7s 18 22 mph 1017.1mb 79f 78f
1:50pm 8ft 11s 7s 18 22 mph 1017.6mb 79f 78f